sensor_id;sensor_type;location;lat;lon;timestamp;P1;durP1;ratioP1;P2;durP2;ratioP2
691;SDS011;328;50.086;8.576;2023-02-28T00:01:26;2.53;;;2.30;;
691;SDS011;328;50.086;8.576;2023-02-28T00:03:54;6.53;;;3.17;;
691;SDS011;328;50.086;8.576;2023-02-28T00:06:23;4.43;;;2.33;;
691;SDS011;328;50.086;8.576;2023-02-28T00:08:51;4.00;;;2.83;;
691;SDS011;328;50.086;8.576;2023-02-28T00:11:19;4.23;;;2.43;;
691;SDS011;328;50.086;8.576;2023-02-28T00:13:47;3.77;;;2.60;;
691;SDS011;328;50.086;8.576;2023-02-28T00:16:15;2.70;;;2.50;;
691;SDS011;328;50.086;8.576;2023-02-28T00:18:44;4.70;;;2.63;;
691;SDS011;328;50.086;8.576;2023-02-28T00:21:13;3.50;;;2.43;;
691;SDS011;328;50.086;8.576;2023-02-28T00:23:42;3.60;;;2.90;;
691;SDS011;328;50.086;8.576;2023-02-28T00:26:10;3.73;;;2.40;;
691;SDS011;328;50.086;8.576;2023-02-28T00:28:38;3.60;;;2.80;;
691;SDS011;328;50.086;8.576;2023-02-28T00:31:05;2.57;;;2.37;;
691;SDS011;328;50.086;8.576;2023-02-28T00:33:33;3.47;;;2.43;;
691;SDS011;328;50.086;8.576;2023-02-28T00:36:02;5.40;;;2.87;;
691;SDS011;328;50.086;8.576;2023-02-28T00:38:30;5.30;;;3.20;;
691;SDS011;328;50.086;8.576;2023-02-28T00:40:59;2.77;;;2.30;;
691;SDS011;328;50.086;8.576;2023-02-28T00:43:31;5.70;;;2.80;;
691;SDS011;328;50.086;8.576;2023-02-28T00:45:59;3.67;;;3.10;;
691;SDS011;328;50.086;8.576;2023-02-28T00:48:27;3.50;;;2.87;;
691;SDS011;328;50.086;8.576;2023-02-28T00:50:55;3.60;;;2.80;;
691;SDS011;328;50.086;8.576;2023-02-28T00:53:22;3.70;;;3.30;;
691;SDS011;328;50.086;8.576;2023-02-28T00:55:50;5.30;;;3.37;;
691;SDS011;328;50.086;8.576;2023-02-28T00:58:19;4.60;;;2.93;;
691;SDS011;328;50.086;8.576;2023-02-28T01:00:47;4.27;;;2.57;;
691;SDS011;328;50.086;8.576;2023-02-28T01:03:16;3.50;;;3.00;;
691;SDS011;328;50.086;8.576;2023-02-28T01:05:44;3.73;;;3.10;;
691;SDS011;328;50.086;8.576;2023-02-28T01:08:12;5.37;;;3.37;;
691;SDS011;328;50.086;8.576;2023-02-28T01:10:39;4.80;;;3.23;;
691;SDS011;328;50.086;8.576;2023-02-28T01:13:07;4.40;;;2.97;;
691;SDS011;328;50.086;8.576;2023-02-28T01:15:36;3.93;;;3.37;;
691;SDS011;328;50.086;8.576;2023-02-28T01:18:04;3.43;;;3.00;;
691;SDS011;328;50.086;8.576;2023-02-28T01:20:32;4.33;;;3.00;;
691;SDS011;328;50.086;8.576;2023-02-28T01:22:59;4.47;;;3.17;;
691;SDS011;328;50.086;8.576;2023-02-28T01:25:27;4.40;;;4.00;;
691;SDS011;328;50.086;8.576;2023-02-28T01:27:54;3.67;;;2.60;;
691;SDS011;328;50.086;8.576;2023-02-28T01:30:22;5.63;;;3.07;;
691;SDS011;328;50.086;8.576;2023-02-28T01:32:51;3.50;;;3.20;;
691;SDS011;328;50.086;8.576;2023-02-28T01:35:19;3.17;;;2.20;;
691;SDS011;328;50.086;8.576;2023-02-28T01:37:47;3.87;;;2.43;;
691;SDS011;328;50.086;8.576;2023-02-28T01:40:15;4.03;;;3.20;;
691;SDS011;328;50.086;8.576;2023-02-28T01:42:42;4.50;;;3.30;;
691;SDS011;328;50.086;8.576;2023-02-28T01:45:18;4.20;;;3.47;;
691;SDS011;328;50.086;8.576;2023-02-28T01:47:48;4.73;;;3.50;;
691;SDS011;328;50.086;8.576;2023-02-28T01:50:19;3.67;;;3.23;;
691;SDS011;328;50.086;8.576;2023-02-28T01:52:49;4.07;;;3.30;;
691;SDS011;328;50.086;8.576;2023-02-28T01:55:18;3.73;;;3.33;;
691;SDS011;328;50.086;8.576;2023-02-28T01:57:48;4.57;;;3.23;;
691;SDS011;328;50.086;8.576;2023-02-28T02:00:17;4.73;;;3.40;;
691;SDS011;328;50.086;8.576;2023-02-28T02:02:47;4.47;;;4.07;;
691;SDS011;328;50.086;8.576;2023-02-28T02:05:17;3.47;;;3.17;;
691;SDS011;328;50.086;8.576;2023-02-28T02:07:48;4.20;;;3.80;;
691;SDS011;328;50.086;8.576;2023-02-28T02:10:18;3.77;;;3.27;;
691;SDS011;328;50.086;8.576;2023-02-28T02:15:40;6.73;;;3.53;;
691;SDS011;328;50.086;8.576;2023-02-28T02:18:12;4.83;;;3.93;;
691;SDS011;328;50.086;8.576;2023-02-28T02:20:57;5.07;;;3.73;;
691;SDS011;328;50.086;8.576;2023-02-28T02:23:50;5.40;;;3.87;;
691;SDS011;328;50.086;8.576;2023-02-28T02:29:35;4.40;;;3.60;;
691;SDS011;328;50.086;8.576;2023-02-28T02:32:28;5.23;;;3.50;;
691;SDS011;328;50.086;8.576;2023-02-28T02:35:11;4.00;;;3.40;;
691;SDS011;328;50.086;8.576;2023-02-28T02:37:40;4.93;;;3.60;;
691;SDS011;328;50.086;8.576;2023-02-28T02:40:13;4.60;;;4.20;;
691;SDS011;328;50.086;8.576;2023-02-28T02:42:44;5.17;;;4.07;;
691;SDS011;328;50.086;8.576;2023-02-28T02:45:17;3.60;;;3.27;;
691;SDS011;328;50.086;8.576;2023-02-28T02:47:48;5.87;;;4.07;;
691;SDS011;328;50.086;8.576;2023-02-28T02:50:19;4.30;;;3.70;;
691;SDS011;328;50.086;8.576;2023-02-28T02:52:51;3.90;;;3.50;;
691;SDS011;328;50.086;8.576;2023-02-28T02:55:21;7.47;;;4.00;;
691;SDS011;328;50.086;8.576;2023-02-28T02:57:50;5.40;;;3.50;;
691;SDS011;328;50.086;8.576;2023-02-28T03:00:22;3.83;;;3.53;;
691;SDS011;328;50.086;8.576;2023-02-28T03:02:52;3.17;;;2.87;;
691;SDS011;328;50.086;8.576;2023-02-28T03:05:21;4.43;;;3.17;;
691;SDS011;328;50.086;8.576;2023-02-28T03:07:52;6.10;;;3.40;;
691;SDS011;328;50.086;8.576;2023-02-28T03:10:33;4.70;;;4.13;;
691;SDS011;328;50.086;8.576;2023-02-28T03:13:22;4.33;;;3.50;;
691;SDS011;328;50.086;8.576;2023-02-28T03:16:07;4.00;;;3.50;;
691;SDS011;328;50.086;8.576;2023-02-28T03:18:46;5.10;;;3.70;;
691;SDS011;328;50.086;8.576;2023-02-28T03:21:22;3.67;;;3.10;;
691;SDS011;328;50.086;8.576;2023-02-28T03:23:53;4.27;;;3.40;;
691;SDS011;328;50.086;8.576;2023-02-28T03:26:24;4.90;;;3.07;;
691;SDS011;328;50.086;8.576;2023-02-28T03:28:55;3.60;;;3.30;;
691;SDS011;328;50.086;8.576;2023-02-28T03:31:29;4.07;;;3.53;;
691;SDS011;328;50.086;8.576;2023-02-28T03:34:00;3.73;;;3.43;;
691;SDS011;328;50.086;8.576;2023-02-28T03:36:32;3.33;;;2.87;;
691;SDS011;328;50.086;8.576;2023-02-28T03:39:03;4.33;;;3.20;;
691;SDS011;328;50.086;8.576;2023-02-28T03:41:34;3.60;;;3.00;;
691;SDS011;328;50.086;8.576;2023-02-28T03:44:05;6.83;;;4.30;;
691;SDS011;328;50.086;8.576;2023-02-28T03:46:36;7.60;;;3.90;;
691;SDS011;328;50.086;8.576;2023-02-28T03:49:06;3.30;;;2.60;;
691;SDS011;328;50.086;8.576;2023-02-28T03:51:38;3.30;;;2.80;;
691;SDS011;328;50.086;8.576;2023-02-28T03:54:08;2.97;;;2.47;;
691;SDS011;328;50.086;8.576;2023-02-28T03:56:39;4.07;;;3.30;;
691;SDS011;328;50.086;8.576;2023-02-28T03:59:10;4.07;;;3.60;;
691;SDS011;328;50.086;8.576;2023-02-28T04:01:41;4.00;;;3.60;;
691;SDS011;328;50.086;8.576;2023-02-28T04:04:10;3.83;;;2.90;;
691;SDS011;328;50.086;8.576;2023-02-28T04:06:40;3.50;;;3.20;;
691;SDS011;328;50.086;8.576;2023-02-28T04:09:09;3.80;;;3.50;;
691;SDS011;328;50.086;8.576;2023-02-28T04:11:38;5.90;;;3.50;;
691;SDS011;328;50.086;8.576;2023-02-28T04:14:06;3.70;;;3.40;;
691;SDS011;328;50.086;8.576;2023-02-28T04:16:36;3.73;;;3.10;;
691;SDS011;328;50.086;8.576;2023-02-28T04:19:06;3.55;;;3.10;;
691;SDS011;328;50.086;8.576;2023-02-28T04:21:35;5.85;;;3.63;;
691;SDS011;328;50.086;8.576;2023-02-28T04:24:07;5.60;;;3.73;;
691;SDS011;328;50.086;8.576;2023-02-28T04:26:40;5.30;;;3.67;;
691;SDS011;328;50.086;8.576;2023-02-28T04:29:10;5.50;;;4.50;;
691;SDS011;328;50.086;8.576;2023-02-28T04:31:38;5.28;;;4.10;;
691;SDS011;328;50.086;8.576;2023-02-28T04:34:05;4.17;;;2.87;;
691;SDS011;328;50.086;8.576;2023-02-28T04:36:33;6.90;;;4.30;;
691;SDS011;328;50.086;8.576;2023-02-28T04:39:01;5.13;;;3.53;;
691;SDS011;328;50.086;8.576;2023-02-28T04:41:31;5.40;;;3.77;;
691;SDS011;328;50.086;8.576;2023-02-28T04:43:59;5.77;;;3.90;;
691;SDS011;328;50.086;8.576;2023-02-28T04:46:26;5.83;;;4.47;;
691;SDS011;328;50.086;8.576;2023-02-28T04:48:54;4.87;;;3.87;;
691;SDS011;328;50.086;8.576;2023-02-28T04:51:22;5.90;;;3.60;;
691;SDS011;328;50.086;8.576;2023-02-28T04:53:49;8.03;;;4.70;;
691;SDS011;328;50.086;8.576;2023-02-28T04:56:17;5.53;;;3.70;;
691;SDS011;328;50.086;8.576;2023-02-28T04:58:47;4.38;;;3.70;;
691;SDS011;328;50.086;8.576;2023-02-28T05:01:18;6.32;;;4.20;;
691;SDS011;328;50.086;8.576;2023-02-28T05:03:47;4.67;;;4.20;;
691;SDS011;328;50.086;8.576;2023-02-28T05:06:15;4.10;;;3.70;;
691;SDS011;328;50.086;8.576;2023-02-28T05:08:43;5.43;;;3.63;;
691;SDS011;328;50.086;8.576;2023-02-28T05:11:16;5.18;;;4.13;;
691;SDS011;328;50.086;8.576;2023-02-28T05:13:44;4.53;;;4.00;;
691;SDS011;328;50.086;8.576;2023-02-28T05:16:14;6.00;;;3.88;;
691;SDS011;328;50.086;8.576;2023-02-28T05:18:42;3.93;;;3.57;;
691;SDS011;328;50.086;8.576;2023-02-28T05:21:20;6.70;;;4.15;;
691;SDS011;328;50.086;8.576;2023-02-28T05:23:55;4.70;;;4.30;;
691;SDS011;328;50.086;8.576;2023-02-28T05:26:24;5.03;;;3.87;;
691;SDS011;328;50.086;8.576;2023-02-28T05:28:56;4.75;;;3.63;;
691;SDS011;328;50.086;8.576;2023-02-28T05:31:23;6.78;;;3.42;;
691;SDS011;328;50.086;8.576;2023-02-28T05:33:51;4.00;;;2.95;;
691;SDS011;328;50.086;8.576;2023-02-28T05:36:21;5.75;;;4.38;;
691;SDS011;328;50.086;8.576;2023-02-28T05:38:49;4.35;;;3.42;;
691;SDS011;328;50.086;8.576;2023-02-28T05:41:17;4.30;;;3.55;;
691;SDS011;328;50.086;8.576;2023-02-28T05:43:46;6.28;;;3.45;;
691;SDS011;328;50.086;8.576;2023-02-28T05:46:15;6.70;;;4.03;;
691;SDS011;328;50.086;8.576;2023-02-28T05:48:45;3.10;;;2.80;;
691;SDS011;328;50.086;8.576;2023-02-28T05:51:14;3.73;;;2.70;;
691;SDS011;328;50.086;8.576;2023-02-28T05:53:42;3.50;;;3.00;;
691;SDS011;328;50.086;8.576;2023-02-28T05:56:14;4.05;;;3.30;;
691;SDS011;328;50.086;8.576;2023-02-28T05:58:41;3.90;;;3.28;;
691;SDS011;328;50.086;8.576;2023-02-28T06:01:21;5.30;;;3.17;;
691;SDS011;328;50.086;8.576;2023-02-28T06:03:50;5.47;;;3.33;;
691;SDS011;328;50.086;8.576;2023-02-28T06:06:21;5.13;;;2.88;;
691;SDS011;328;50.086;8.576;2023-02-28T06:08:51;5.32;;;3.55;;
691;SDS011;328;50.086;8.576;2023-02-28T06:11:27;4.93;;;3.00;;
691;SDS011;328;50.086;8.576;2023-02-28T06:13:55;4.18;;;3.20;;
691;SDS011;328;50.086;8.576;2023-02-28T06:16:27;4.53;;;4.10;;
691;SDS011;328;50.086;8.576;2023-02-28T06:18:56;3.30;;;3.00;;
691;SDS011;328;50.086;8.576;2023-02-28T06:21:24;5.00;;;3.93;;
691;SDS011;328;50.086;8.576;2023-02-28T06:23:54;4.33;;;3.40;;
691;SDS011;328;50.086;8.576;2023-02-28T06:26:23;4.50;;;2.85;;
691;SDS011;328;50.086;8.576;2023-02-28T06:28:50;3.70;;;3.23;;
691;SDS011;328;50.086;8.576;2023-02-28T06:31:18;6.10;;;3.00;;
691;SDS011;328;50.086;8.576;2023-02-28T06:33:47;4.50;;;3.15;;
691;SDS011;328;50.086;8.576;2023-02-28T06:36:16;5.93;;;3.67;;
691;SDS011;328;50.086;8.576;2023-02-28T06:38:44;5.13;;;3.23;;
691;SDS011;328;50.086;8.576;2023-02-28T06:41:11;3.93;;;2.80;;
691;SDS011;328;50.086;8.576;2023-02-28T06:43:40;3.63;;;2.83;;
691;SDS011;328;50.086;8.576;2023-02-28T06:46:10;5.33;;;3.93;;
691;SDS011;328;50.086;8.576;2023-02-28T06:48:39;3.83;;;3.10;;
691;SDS011;328;50.086;8.576;2023-02-28T06:51:09;7.65;;;4.30;;
691;SDS011;328;50.086;8.576;2023-02-28T06:53:37;8.70;;;4.90;;
691;SDS011;328;50.086;8.576;2023-02-28T06:56:06;5.60;;;3.67;;
691;SDS011;328;50.086;8.576;2023-02-28T06:58:34;2.83;;;2.53;;
691;SDS011;328;50.086;8.576;2023-02-28T07:01:03;4.57;;;3.83;;
691;SDS011;328;50.086;8.576;2023-02-28T07:03:31;4.07;;;3.43;;
691;SDS011;328;50.086;8.576;2023-02-28T07:05:59;8.30;;;3.07;;
691;SDS011;328;50.086;8.576;2023-02-28T07:08:29;4.40;;;3.17;;
691;SDS011;328;50.086;8.576;2023-02-28T07:10:57;5.57;;;4.07;;
691;SDS011;328;50.086;8.576;2023-02-28T07:13:25;5.53;;;3.70;;
691;SDS011;328;50.086;8.576;2023-02-28T07:15:53;4.47;;;3.37;;
691;SDS011;328;50.086;8.576;2023-02-28T07:18:21;5.38;;;4.35;;
691;SDS011;328;50.086;8.576;2023-02-28T07:20:49;4.50;;;2.80;;
691;SDS011;328;50.086;8.576;2023-02-28T07:23:17;4.50;;;3.40;;
691;SDS011;328;50.086;8.576;2023-02-28T07:25:46;5.73;;;3.40;;
691;SDS011;328;50.086;8.576;2023-02-28T07:28:14;3.73;;;3.37;;
691;SDS011;328;50.086;8.576;2023-02-28T07:30:42;4.13;;;3.30;;
691;SDS011;328;50.086;8.576;2023-02-28T07:33:10;2.40;;;2.20;;
691;SDS011;328;50.086;8.576;2023-02-28T07:35:37;3.42;;;3.13;;
691;SDS011;328;50.086;8.576;2023-02-28T07:38:05;4.60;;;4.07;;
691;SDS011;328;50.086;8.576;2023-02-28T07:40:34;5.25;;;3.13;;
691;SDS011;328;50.086;8.576;2023-02-28T07:43:03;3.83;;;3.50;;
691;SDS011;328;50.086;8.576;2023-02-28T07:45:31;3.73;;;3.10;;
691;SDS011;328;50.086;8.576;2023-02-28T07:48:00;4.67;;;3.57;;
691;SDS011;328;50.086;8.576;2023-02-28T07:50:28;4.70;;;3.90;;
691;SDS011;328;50.086;8.576;2023-02-28T07:52:57;3.07;;;2.57;;
691;SDS011;328;50.086;8.576;2023-02-28T07:55:24;4.03;;;3.63;;
691;SDS011;328;50.086;8.576;2023-02-28T07:57:52;5.70;;;3.40;;
691;SDS011;328;50.086;8.576;2023-02-28T08:00:23;3.93;;;3.20;;
691;SDS011;328;50.086;8.576;2023-02-28T08:02:50;3.63;;;3.10;;
691;SDS011;328;50.086;8.576;2023-02-28T08:05:20;4.53;;;3.67;;
691;SDS011;328;50.086;8.576;2023-02-28T08:07:48;4.00;;;3.50;;
691;SDS011;328;50.086;8.576;2023-02-28T08:10:16;7.10;;;3.70;;
691;SDS011;328;50.086;8.576;2023-02-28T08:12:44;3.90;;;3.20;;
691;SDS011;328;50.086;8.576;2023-02-28T08:15:11;7.60;;;3.40;;
691;SDS011;328;50.086;8.576;2023-02-28T08:17:40;7.10;;;4.00;;
691;SDS011;328;50.086;8.576;2023-02-28T08:20:08;6.53;;;4.00;;
691;SDS011;328;50.086;8.576;2023-02-28T08:22:37;4.67;;;3.20;;
691;SDS011;328;50.086;8.576;2023-02-28T08:25:05;4.00;;;3.10;;
691;SDS011;328;50.086;8.576;2023-02-28T08:27:33;5.30;;;4.07;;
691;SDS011;328;50.086;8.576;2023-02-28T08:30:01;5.00;;;3.20;;
691;SDS011;328;50.086;8.576;2023-02-28T08:32:29;3.93;;;2.73;;
691;SDS011;328;50.086;8.576;2023-02-28T08:34:58;4.27;;;3.43;;
691;SDS011;328;50.086;8.576;2023-02-28T08:37:26;3.80;;;2.60;;
691;SDS011;328;50.086;8.576;2023-02-28T08:39:53;4.40;;;2.70;;
691;SDS011;328;50.086;8.576;2023-02-28T08:42:22;3.30;;;2.70;;
691;SDS011;328;50.086;8.576;2023-02-28T08:44:50;6.30;;;3.50;;
691;SDS011;328;50.086;8.576;2023-02-28T08:47:17;4.70;;;3.03;;
691;SDS011;328;50.086;8.576;2023-02-28T08:49:45;5.23;;;2.90;;
691;SDS011;328;50.086;8.576;2023-02-28T08:52:14;5.60;;;2.83;;
691;SDS011;328;50.086;8.576;2023-02-28T08:54:41;3.40;;;2.63;;
691;SDS011;328;50.086;8.576;2023-02-28T08:57:09;4.57;;;2.97;;
691;SDS011;328;50.086;8.576;2023-02-28T08:59:36;3.10;;;2.80;;
691;SDS011;328;50.086;8.576;2023-02-28T09:02:04;4.63;;;2.77;;
691;SDS011;328;50.086;8.576;2023-02-28T09:04:33;3.57;;;2.80;;
691;SDS011;328;50.086;8.576;2023-02-28T09:07:00;5.50;;;3.20;;
691;SDS011;328;50.086;8.576;2023-02-28T09:09:29;4.20;;;2.50;;
691;SDS011;328;50.086;8.576;2023-02-28T09:11:57;4.33;;;2.53;;
691;SDS011;328;50.086;8.576;2023-02-28T09:14:24;3.77;;;2.63;;
691;SDS011;328;50.086;8.576;2023-02-28T09:16:52;3.97;;;3.13;;
691;SDS011;328;50.086;8.576;2023-02-28T09:19:20;2.77;;;2.27;;
691;SDS011;328;50.086;8.576;2023-02-28T09:21:48;4.17;;;3.03;;
691;SDS011;328;50.086;8.576;2023-02-28T09:24:16;3.77;;;2.87;;
691;SDS011;328;50.086;8.576;2023-02-28T09:26:45;4.40;;;2.60;;
691;SDS011;328;50.086;8.576;2023-02-28T09:29:29;4.73;;;3.20;;
691;SDS011;328;50.086;8.576;2023-02-28T09:31:56;3.23;;;2.80;;
691;SDS011;328;50.086;8.576;2023-02-28T09:34:25;2.57;;;2.37;;
691;SDS011;328;50.086;8.576;2023-02-28T09:36:52;4.83;;;2.93;;
691;SDS011;328;50.086;8.576;2023-02-28T09:39:21;5.27;;;2.80;;
691;SDS011;328;50.086;8.576;2023-02-28T09:41:51;5.20;;;2.50;;
691;SDS011;328;50.086;8.576;2023-02-28T09:44:20;4.57;;;3.37;;
691;SDS011;328;50.086;8.576;2023-02-28T09:46:51;3.57;;;2.57;;
691;SDS011;328;50.086;8.576;2023-02-28T09:49:22;3.40;;;2.63;;
691;SDS011;328;50.086;8.576;2023-02-28T09:51:53;5.60;;;2.63;;
691;SDS011;328;50.086;8.576;2023-02-28T09:54:26;3.10;;;2.80;;
691;SDS011;328;50.086;8.576;2023-02-28T09:56:58;4.90;;;3.20;;
691;SDS011;328;50.086;8.576;2023-02-28T09:59:30;4.90;;;2.87;;
691;SDS011;328;50.086;8.576;2023-02-28T10:02:04;4.30;;;2.67;;
691;SDS011;328;50.086;8.576;2023-02-28T10:04:42;3.73;;;2.50;;
691;SDS011;328;50.086;8.576;2023-02-28T10:07:16;4.83;;;2.80;;
691;SDS011;328;50.086;8.576;2023-02-28T10:09:50;4.80;;;2.40;;
691;SDS011;328;50.086;8.576;2023-02-28T10:12:22;4.23;;;2.83;;
691;SDS011;328;50.086;8.576;2023-02-28T10:14:50;3.40;;;2.80;;
691;SDS011;328;50.086;8.576;2023-02-28T10:17:21;4.60;;;2.67;;
691;SDS011;328;50.086;8.576;2023-02-28T10:19:51;3.13;;;2.60;;
691;SDS011;328;50.086;8.576;2023-02-28T10:22:24;3.97;;;3.00;;
691;SDS011;328;50.086;8.576;2023-02-28T10:24:55;3.17;;;2.87;;
691;SDS011;328;50.086;8.576;2023-02-28T10:27:29;3.77;;;2.90;;
691;SDS011;328;50.086;8.576;2023-02-28T10:29:59;3.87;;;3.30;;
691;SDS011;328;50.086;8.576;2023-02-28T10:32:29;4.87;;;3.07;;
691;SDS011;328;50.086;8.576;2023-02-28T10:34:59;3.87;;;3.00;;
691;SDS011;328;50.086;8.576;2023-02-28T10:37:27;4.57;;;3.90;;
691;SDS011;328;50.086;8.576;2023-02-28T10:39:55;3.00;;;2.70;;
691;SDS011;328;50.086;8.576;2023-02-28T10:42:23;3.73;;;2.97;;
691;SDS011;328;50.086;8.576;2023-02-28T10:45:09;4.63;;;3.00;;
691;SDS011;328;50.086;8.576;2023-02-28T10:47:40;3.67;;;3.27;;
691;SDS011;328;50.086;8.576;2023-02-28T10:53:07;4.50;;;2.60;;
691;SDS011;328;50.086;8.576;2023-02-28T10:55:42;5.40;;;3.53;;
691;SDS011;328;50.086;8.576;2023-02-28T10:58:20;3.77;;;2.90;;
691;SDS011;328;50.086;8.576;2023-02-28T11:00:49;5.23;;;4.00;;
691;SDS011;328;50.086;8.576;2023-02-28T11:03:25;4.90;;;3.60;;
691;SDS011;328;50.086;8.576;2023-02-28T11:05:56;6.37;;;3.30;;
691;SDS011;328;50.086;8.576;2023-02-28T11:08:24;3.40;;;2.37;;
691;SDS011;328;50.086;8.576;2023-02-28T11:10:56;4.13;;;3.00;;
691;SDS011;328;50.086;8.576;2023-02-28T11:13:26;5.33;;;2.83;;
691;SDS011;328;50.086;8.576;2023-02-28T11:15:57;4.33;;;3.50;;
691;SDS011;328;50.086;8.576;2023-02-28T11:18:27;5.00;;;2.63;;
691;SDS011;328;50.086;8.576;2023-02-28T11:20:57;3.90;;;3.20;;
691;SDS011;328;50.086;8.576;2023-02-28T11:23:26;2.57;;;2.20;;
691;SDS011;328;50.086;8.576;2023-02-28T11:25:56;3.10;;;2.57;;
691;SDS011;328;50.086;8.576;2023-02-28T11:28:26;6.10;;;3.50;;
691;SDS011;328;50.086;8.576;2023-02-28T11:31:03;5.80;;;3.53;;
691;SDS011;328;50.086;8.576;2023-02-28T11:33:40;7.87;;;3.13;;
691;SDS011;328;50.086;8.576;2023-02-28T11:36:11;5.83;;;2.50;;
691;SDS011;328;50.086;8.576;2023-02-28T11:38:41;4.43;;;3.27;;
691;SDS011;328;50.086;8.576;2023-02-28T11:41:13;4.53;;;3.43;;
691;SDS011;328;50.086;8.576;2023-02-28T11:43:59;5.10;;;3.43;;
691;SDS011;328;50.086;8.576;2023-02-28T11:46:35;6.10;;;3.07;;
691;SDS011;328;50.086;8.576;2023-02-28T11:49:13;5.47;;;3.40;;
691;SDS011;328;50.086;8.576;2023-02-28T11:51:51;6.50;;;4.30;;
691;SDS011;328;50.086;8.576;2023-02-28T11:54:23;3.77;;;3.43;;
691;SDS011;328;50.086;8.576;2023-02-28T11:56:57;9.13;;;3.63;;
691;SDS011;328;50.086;8.576;2023-02-28T11:59:32;5.10;;;3.70;;
691;SDS011;328;50.086;8.576;2023-02-28T12:02:10;6.50;;;4.67;;
691;SDS011;328;50.086;8.576;2023-02-28T12:04:49;4.67;;;3.43;;
691;SDS011;328;50.086;8.576;2023-02-28T12:07:23;7.20;;;4.80;;
691;SDS011;328;50.086;8.576;2023-02-28T12:09:56;8.00;;;3.97;;
691;SDS011;328;50.086;8.576;2023-02-28T12:12:34;5.43;;;3.10;;
691;SDS011;328;50.086;8.576;2023-02-28T12:15:14;4.47;;;3.67;;
691;SDS011;328;50.086;8.576;2023-02-28T12:17:52;5.40;;;3.73;;
691;SDS011;328;50.086;8.576;2023-02-28T12:20:26;5.07;;;3.60;;
691;SDS011;328;50.086;8.576;2023-02-28T12:23:01;5.63;;;3.97;;
691;SDS011;328;50.086;8.576;2023-02-28T12:25:52;4.70;;;3.53;;
691;SDS011;328;50.086;8.576;2023-02-28T12:28:26;4.30;;;3.40;;
691;SDS011;328;50.086;8.576;2023-02-28T12:30:56;3.30;;;3.00;;
691;SDS011;328;50.086;8.576;2023-02-28T12:33:28;4.47;;;3.67;;
691;SDS011;328;50.086;8.576;2023-02-28T12:36:00;5.90;;;3.17;;
691;SDS011;328;50.086;8.576;2023-02-28T12:38:34;5.07;;;3.53;;
691;SDS011;328;50.086;8.576;2023-02-28T12:41:04;6.23;;;3.97;;
691;SDS011;328;50.086;8.576;2023-02-28T12:43:34;5.07;;;3.60;;
691;SDS011;328;50.086;8.576;2023-02-28T12:46:05;4.40;;;3.43;;
691;SDS011;328;50.086;8.576;2023-02-28T12:48:39;5.00;;;4.00;;
691;SDS011;328;50.086;8.576;2023-02-28T12:51:08;5.77;;;4.03;;
691;SDS011;328;50.086;8.576;2023-02-28T12:53:40;9.00;;;4.53;;
691;SDS011;328;50.086;8.576;2023-02-28T12:56:18;5.13;;;4.60;;
691;SDS011;328;50.086;8.576;2023-02-28T12:58:49;7.10;;;3.90;;
691;SDS011;328;50.086;8.576;2023-02-28T13:01:26;5.93;;;4.83;;
691;SDS011;328;50.086;8.576;2023-02-28T13:04:17;4.13;;;3.70;;
691;SDS011;328;50.086;8.576;2023-02-28T13:07:00;4.23;;;3.83;;
691;SDS011;328;50.086;8.576;2023-02-28T13:09:36;6.47;;;4.70;;
691;SDS011;328;50.086;8.576;2023-02-28T13:12:11;4.30;;;3.20;;
691;SDS011;328;50.086;8.576;2023-02-28T13:14:40;5.73;;;4.10;;
691;SDS011;328;50.086;8.576;2023-02-28T13:17:11;5.53;;;4.30;;
691;SDS011;328;50.086;8.576;2023-02-28T13:19:43;6.43;;;3.87;;
691;SDS011;328;50.086;8.576;2023-02-28T13:22:16;4.80;;;4.00;;
691;SDS011;328;50.086;8.576;2023-02-28T13:24:46;5.70;;;4.17;;
691;SDS011;328;50.086;8.576;2023-02-28T13:36:05;5.97;;;4.53;;
691;SDS011;328;50.086;8.576;2023-02-28T13:38:35;5.60;;;4.13;;
691;SDS011;328;50.086;8.576;2023-02-28T13:44:10;5.63;;;4.33;;
691;SDS011;328;50.086;8.576;2023-02-28T13:49:44;8.50;;;4.67;;
691;SDS011;328;50.086;8.576;2023-02-28T13:52:15;4.90;;;3.80;;
691;SDS011;328;50.086;8.576;2023-02-28T13:54:50;6.73;;;4.50;;
691;SDS011;328;50.086;8.576;2023-02-28T13:57:24;4.00;;;3.60;;
691;SDS011;328;50.086;8.576;2023-02-28T14:00:02;4.77;;;3.87;;
691;SDS011;328;50.086;8.576;2023-02-28T14:02:47;6.67;;;4.40;;
691;SDS011;328;50.086;8.576;2023-02-28T14:05:41;5.60;;;4.10;;
691;SDS011;328;50.086;8.576;2023-02-28T14:08:12;5.93;;;4.43;;
691;SDS011;328;50.086;8.576;2023-02-28T14:10:43;6.60;;;4.47;;
691;SDS011;328;50.086;8.576;2023-02-28T14:13:14;5.60;;;4.50;;
691;SDS011;328;50.086;8.576;2023-02-28T14:16:11;8.63;;;5.03;;
691;SDS011;328;50.086;8.576;2023-02-28T14:18:40;6.07;;;3.80;;
691;SDS011;328;50.086;8.576;2023-02-28T14:21:14;4.77;;;4.10;;
691;SDS011;328;50.086;8.576;2023-02-28T14:23:54;5.60;;;4.30;;
691;SDS011;328;50.086;8.576;2023-02-28T14:29:30;7.23;;;5.33;;
691;SDS011;328;50.086;8.576;2023-02-28T14:32:11;5.17;;;3.77;;
691;SDS011;328;50.086;8.576;2023-02-28T14:34:43;8.23;;;4.40;;
691;SDS011;328;50.086;8.576;2023-02-28T14:37:15;5.13;;;3.50;;
691;SDS011;328;50.086;8.576;2023-02-28T14:39:48;10.37;;;4.80;;
691;SDS011;328;50.086;8.576;2023-02-28T14:42:28;5.40;;;4.87;;
691;SDS011;328;50.086;8.576;2023-02-28T14:44:57;5.80;;;3.80;;
691;SDS011;328;50.086;8.576;2023-02-28T14:47:26;6.40;;;4.50;;
691;SDS011;328;50.086;8.576;2023-02-28T14:49:55;4.40;;;4.00;;
691;SDS011;328;50.086;8.576;2023-02-28T14:52:25;5.13;;;3.87;;
691;SDS011;328;50.086;8.576;2023-02-28T14:54:56;6.77;;;4.67;;
691;SDS011;328;50.086;8.576;2023-02-28T14:57:26;6.90;;;3.43;;
691;SDS011;328;50.086;8.576;2023-02-28T14:59:58;6.50;;;4.47;;
691;SDS011;328;50.086;8.576;2023-02-28T15:02:30;6.47;;;4.60;;
691;SDS011;328;50.086;8.576;2023-02-28T15:04:59;6.37;;;3.97;;
691;SDS011;328;50.086;8.576;2023-02-28T15:07:28;5.90;;;4.40;;
691;SDS011;328;50.086;8.576;2023-02-28T15:10:13;8.70;;;4.57;;
691;SDS011;328;50.086;8.576;2023-02-28T15:12:46;7.40;;;4.90;;
691;SDS011;328;50.086;8.576;2023-02-28T15:15:19;8.07;;;4.77;;
691;SDS011;328;50.086;8.576;2023-02-28T15:18:01;8.87;;;5.10;;
691;SDS011;328;50.086;8.576;2023-02-28T15:20:30;9.30;;;4.43;;
691;SDS011;328;50.086;8.576;2023-02-28T15:22:59;5.50;;;4.33;;
691;SDS011;328;50.086;8.576;2023-02-28T15:25:28;5.00;;;4.37;;
691;SDS011;328;50.086;8.576;2023-02-28T15:27:56;7.93;;;4.60;;
691;SDS011;328;50.086;8.576;2023-02-28T15:30:25;6.20;;;4.73;;
691;SDS011;328;50.086;8.576;2023-02-28T15:33:03;6.77;;;5.07;;
691;SDS011;328;50.086;8.576;2023-02-28T15:35:34;7.53;;;5.07;;
691;SDS011;328;50.086;8.576;2023-02-28T15:38:02;5.17;;;4.17;;
691;SDS011;328;50.086;8.576;2023-02-28T15:40:35;6.37;;;4.77;;
691;SDS011;328;50.086;8.576;2023-02-28T15:43:06;5.93;;;4.30;;
691;SDS011;328;50.086;8.576;2023-02-28T15:45:36;8.23;;;4.97;;
691;SDS011;328;50.086;8.576;2023-02-28T15:48:13;7.10;;;4.90;;
691;SDS011;328;50.086;8.576;2023-02-28T15:50:43;7.67;;;5.47;;
691;SDS011;328;50.086;8.576;2023-02-28T15:53:15;4.90;;;4.37;;
691;SDS011;328;50.086;8.576;2023-02-28T15:55:46;6.07;;;4.10;;
691;SDS011;328;50.086;8.576;2023-02-28T15:58:19;6.30;;;4.70;;
691;SDS011;328;50.086;8.576;2023-02-28T16:01:00;8.00;;;5.00;;
691;SDS011;328;50.086;8.576;2023-02-28T16:03:37;10.53;;;4.13;;
691;SDS011;328;50.086;8.576;2023-02-28T16:06:24;8.17;;;5.30;;
691;SDS011;328;50.086;8.576;2023-02-28T16:08:58;5.90;;;4.53;;
691;SDS011;328;50.086;8.576;2023-02-28T16:11:27;4.97;;;3.90;;
691;SDS011;328;50.086;8.576;2023-02-28T16:13:56;7.27;;;4.40;;
691;SDS011;328;50.086;8.576;2023-02-28T16:16:24;5.30;;;4.67;;
691;SDS011;328;50.086;8.576;2023-02-28T16:18:53;5.93;;;4.60;;
691;SDS011;328;50.086;8.576;2023-02-28T16:21:21;6.40;;;4.20;;
691;SDS011;328;50.086;8.576;2023-02-28T16:23:49;6.30;;;4.60;;
691;SDS011;328;50.086;8.576;2023-02-28T16:26:18;6.40;;;4.40;;
691;SDS011;328;50.086;8.576;2023-02-28T16:28:50;6.73;;;4.77;;
691;SDS011;328;50.086;8.576;2023-02-28T16:31:18;7.63;;;5.07;;
691;SDS011;328;50.086;8.576;2023-02-28T16:33:47;5.80;;;4.60;;
691;SDS011;328;50.086;8.576;2023-02-28T16:36:15;6.53;;;5.50;;